Time;durP1;ratioP1;P1;durP2;ratioP2;P2;SDS_P1;SDS_P2;PMS_P1;PMS_P2;Temp;Humidity;BMP_temperature;BMP_pressure;BME280_temperature;BME280_humidity;BME280_pressure;Samples;Min_cycle;Max_cycle;Signal;HPM_P1;HPM_P2
2023/05/28 00:02:08;;;;;;;16.58;6.60;;;11.70;99.90;;;;;;5030329;28;20086;-74
2023/05/28 00:04:33;;;;;;;16.05;5.97;;;11.70;99.90;;;;;;5017510;28;20045;-74
2023/05/28 00:06:59;;;;;;;16.52;6.07;;;11.70;99.90;;;;;;5013476;28;20060;-75
2023/05/28 00:09:25;;;;;;;20.00;6.80;;;11.70;99.90;;;;;;5021031;28;20049;-74
2023/05/28 00:11:51;;;;;;;17.08;6.50;;;11.70;99.90;;;;;;5005675;28;20041;-74
2023/05/28 00:14:17;;;;;;;19.80;6.20;;;11.70;99.90;;;;;;5000062;28;20048;-73
2023/05/28 00:16:44;;;;;;;20.80;7.05;;;11.70;99.90;;;;;;5007206;28;20511;-74
2023/05/28 00:19:10;;;;;;;19.42;7.55;;;11.70;99.90;;;;;;5025932;28;20041;-73
2023/05/28 00:21:36;;;;;;;18.23;6.35;;;11.70;99.90;;;;;;5040702;28;20104;-73
2023/05/28 00:24:03;;;;;;;21.30;7.07;;;11.70;99.90;;;;;;5039901;28;20081;-74
2023/05/28 00:26:29;;;;;;;19.75;6.13;;;11.70;99.90;;;;;;5026253;28;20060;-74
2023/05/28 00:28:55;;;;;;;20.45;6.95;;;11.70;99.90;;;;;;5023778;28;20128;-74
2023/05/28 00:31:21;;;;;;;22.08;6.95;;;11.60;99.90;;;;;;5008963;28;20131;-74
2023/05/28 00:33:47;;;;;;;21.13;7.07;;;11.60;99.90;;;;;;5001187;28;20146;-74
2023/05/28 00:36:12;;;;;;;15.80;6.50;;;11.60;99.90;;;;;;5032695;28;20180;-74
2023/05/28 00:38:38;;;;;;;15.95;6.30;;;11.60;99.90;;;;;;5013104;28;20051;-74
2023/05/28 00:41:04;;;;;;;25.05;7.85;;;11.60;99.90;;;;;;5034861;28;20064;-74
2023/05/28 00:43:31;;;;;;;15.23;6.47;;;11.60;99.90;;;;;;5038279;28;20106;-73
2023/05/28 00:46:00;;;;;;;16.60;6.68;;;11.60;99.90;;;;;;5038118;28;21926;-74
2023/05/28 00:48:28;;;;;;;17.92;7.18;;;11.60;99.90;;;;;;5038964;28;20045;-73
2023/05/28 00:50:53;;;;;;;21.33;7.03;;;11.50;99.90;;;;;;5037054;28;20033;-74
2023/05/28 00:53:19;;;;;;;15.15;7.00;;;11.50;99.90;;;;;;5009747;28;20037;-74
2023/05/28 00:55:45;;;;;;;17.60;7.05;;;11.50;99.90;;;;;;5037926;28;20063;-74
2023/05/28 00:58:11;;;;;;;18.42;6.60;;;11.50;99.90;;;;;;5022285;28;20127;-73
2023/05/28 01:00:38;;;;;;;21.55;7.45;;;11.50;99.90;;;;;;5043512;28;20057;-74
2023/05/28 01:03:05;;;;;;;17.67;6.55;;;11.50;99.90;;;;;;5013168;28;20045;-73
2023/05/28 01:05:34;;;;;;;16.15;6.93;;;11.50;99.90;;;;;;5039993;28;20091;-72
2023/05/28 01:08:04;;;;;;;18.88;6.85;;;11.40;99.90;;;;;;5017615;28;20041;-72
2023/05/28 01:10:31;;;;;;;14.85;6.65;;;11.40;99.90;;;;;;5037072;28;20042;-74
2023/05/28 01:13:00;;;;;;;17.27;6.70;;;11.40;99.90;;;;;;5041457;28;20044;-72
2023/05/28 01:15:26;;;;;;;21.55;7.75;;;11.40;99.90;;;;;;5023270;28;20050;-73
2023/05/28 01:17:58;;;;;;;18.77;7.22;;;11.40;99.90;;;;;;5049051;28;20028;-73
2023/05/28 01:20:27;;;;;;;19.05;7.90;;;11.40;99.90;;;;;;5028663;28;20122;-73
2023/05/28 01:22:57;;;;;;;17.20;6.50;;;11.30;99.90;;;;;;5031868;28;20124;-73
2023/05/28 01:25:23;;;;;;;20.65;7.10;;;11.30;99.90;;;;;;5028651;28;20037;-72
2023/05/28 01:27:49;;;;;;;19.77;6.95;;;11.30;99.90;;;;;;5053909;28;20037;-73
2023/05/28 01:30:15;;;;;;;17.50;7.40;;;11.30;99.90;;;;;;5023620;28;20040;-75
2023/05/28 01:32:41;;;;;;;20.45;6.88;;;11.30;99.90;;;;;;5019491;28;20053;-73
2023/05/28 01:35:09;;;;;;;15.65;6.70;;;11.40;99.90;;;;;;5046634;28;20097;-74
2023/05/28 01:37:39;;;;;;;22.00;7.57;;;11.30;99.90;;;;;;5038905;28;20040;-74
2023/05/28 01:40:07;;;;;;;16.38;7.10;;;11.30;99.90;;;;;;5050282;28;20082;-74
2023/05/28 01:42:34;;;;;;;17.17;6.97;;;11.30;99.90;;;;;;5025219;28;20029;-74
2023/05/28 01:45:02;;;;;;;17.08;6.93;;;11.30;99.90;;;;;;5040649;28;20091;-74
2023/05/28 01:47:29;;;;;;;14.52;6.90;;;11.30;99.90;;;;;;5048234;28;20048;-74
2023/05/28 01:49:55;;;;;;;16.20;6.53;;;11.30;99.90;;;;;;5034602;28;20044;-74
2023/05/28 01:52:21;;;;;;;14.43;6.82;;;11.30;99.90;;;;;;5044413;28;20041;-75
2023/05/28 01:54:47;;;;;;;20.13;8.23;;;11.30;99.90;;;;;;5037898;28;20085;-74
2023/05/28 01:57:14;;;;;;;19.05;7.25;;;11.30;99.90;;;;;;5027038;28;20094;-74
2023/05/28 01:59:40;;;;;;;18.02;7.13;;;11.30;99.90;;;;;;5029093;28;20059;-74
2023/05/28 02:02:07;;;;;;;21.25;7.25;;;11.30;99.90;;;;;;5011755;28;20105;-73
2023/05/28 02:04:33;;;;;;;16.25;7.00;;;11.30;99.90;;;;;;5033003;28;20051;-74
2023/05/28 02:06:58;;;;;;;18.98;7.78;;;11.30;99.90;;;;;;5012723;28;20064;-74
2023/05/28 02:09:24;;;;;;;15.98;6.75;;;11.30;99.90;;;;;;5020781;28;20044;-73
2023/05/28 02:11:50;;;;;;;18.02;7.40;;;11.30;99.90;;;;;;5020234;28;20056;-73
2023/05/28 02:14:16;;;;;;;20.73;7.35;;;11.30;99.90;;;;;;5016061;28;20049;-74
2023/05/28 02:16:48;;;;;;;18.92;6.47;;;11.30;99.90;;;;;;5015110;28;20713;-74
2023/05/28 02:19:15;;;;;;;18.63;6.85;;;11.30;99.90;;;;;;5025357;28;20086;-74
2023/05/28 02:21:41;;;;;;;19.27;7.07;;;11.30;99.90;;;;;;5020624;28;20060;-74
2023/05/28 02:24:07;;;;;;;25.67;7.50;;;11.30;99.90;;;;;;5006582;28;20044;-73
2023/05/28 02:26:33;;;;;;;17.35;6.50;;;11.30;99.90;;;;;;5018153;28;20037;-74
2023/05/28 02:28:59;;;;;;;20.23;7.35;;;11.30;99.90;;;;;;5010805;28;20049;-74
2023/05/28 02:31:25;;;;;;;16.35;7.57;;;11.30;99.90;;;;;;5021598;28;20029;-74
2023/05/28 02:33:50;;;;;;;23.17;7.45;;;11.30;99.90;;;;;;5022266;28;20034;-72
2023/05/28 02:36:16;;;;;;;16.63;7.55;;;11.30;99.90;;;;;;5015474;28;20037;-74
2023/05/28 02:38:42;;;;;;;16.73;6.50;;;11.20;99.90;;;;;;5038727;28;20060;-73
2023/05/28 02:41:09;;;;;;;19.75;7.30;;;11.20;99.90;;;;;;5043052;28;20045;-74
2023/05/28 02:43:35;;;;;;;16.33;7.25;;;11.20;99.90;;;;;;5040488;28;20600;-74
2023/05/28 02:46:01;;;;;;;19.00;7.90;;;11.20;99.90;;;;;;5000329;28;20037;-74
2023/05/28 02:48:27;;;;;;;17.33;7.53;;;11.10;99.90;;;;;;5018263;28;20060;-73
2023/05/28 02:50:53;;;;;;;18.85;7.20;;;11.10;99.90;;;;;;5036456;28;20037;-74
2023/05/28 02:53:21;;;;;;;15.18;6.90;;;11.10;99.90;;;;;;5042748;28;20060;-74
2023/05/28 02:55:47;;;;;;;19.05;7.97;;;11.10;99.90;;;;;;5029125;28;20041;-74
2023/05/28 02:58:13;;;;;;;15.63;7.03;;;11.10;99.90;;;;;;5040908;28;20039;-75
2023/05/28 03:00:40;;;;;;;15.80;7.18;;;11.10;99.90;;;;;;5029835;28;20038;-73
2023/05/28 03:03:06;;;;;;;16.73;6.60;;;11.10;99.90;;;;;;5023138;28;20076;-74
2023/05/28 03:05:32;;;;;;;24.75;7.55;;;11.10;99.90;;;;;;5033010;28;20477;-74
2023/05/28 03:07:58;;;;;;;18.33;7.70;;;11.10;99.90;;;;;;5040024;28;20045;-74
2023/05/28 03:10:24;;;;;;;19.45;8.65;;;11.10;99.90;;;;;;5029820;28;20082;-74
2023/05/28 03:12:50;;;;;;;15.10;6.72;;;11.10;99.90;;;;;;5041052;28;20044;-74
2023/05/28 03:15:16;;;;;;;19.90;7.60;;;11.00;99.90;;;;;;5025920;28;20076;-73
2023/05/28 03:17:42;;;;;;;16.95;7.35;;;11.00;99.90;;;;;;5020481;28;20159;-74
2023/05/28 03:20:09;;;;;;;16.90;7.70;;;11.00;99.90;;;;;;5039405;28;20133;-74
2023/05/28 03:22:36;;;;;;;20.40;8.02;;;11.00;99.90;;;;;;5014428;28;20033;-74
2023/05/28 03:25:02;;;;;;;15.55;7.05;;;11.00;99.90;;;;;;5038276;28;20048;-74
2023/05/28 03:27:28;;;;;;;15.75;7.53;;;11.00;99.90;;;;;;5026021;28;20077;-73
2023/05/28 03:29:54;;;;;;;17.30;7.60;;;11.00;99.90;;;;;;5026017;28;20520;-74
2023/05/28 03:32:20;;;;;;;21.60;8.32;;;10.90;99.90;;;;;;5038945;28;20111;-73
2023/05/28 03:34:46;;;;;;;16.33;7.07;;;10.90;99.90;;;;;;5027777;28;20443;-74
2023/05/28 03:37:12;;;;;;;16.40;7.05;;;10.90;99.90;;;;;;5038260;28;20552;-74
2023/05/28 03:39:37;;;;;;;18.65;7.10;;;10.90;99.90;;;;;;5028208;28;20076;-74
2023/05/28 03:42:04;;;;;;;15.05;7.55;;;10.90;99.90;;;;;;5046142;28;20049;-74
2023/05/28 03:44:30;;;;;;;16.45;7.00;;;10.90;99.90;;;;;;5031744;28;20037;-74
2023/05/28 03:46:56;;;;;;;20.63;8.25;;;10.90;99.90;;;;;;5044041;28;20039;-73
2023/05/28 03:49:21;;;;;;;18.58;8.07;;;10.90;99.90;;;;;;5016820;28;20055;-74
2023/05/28 03:51:47;;;;;;;22.13;7.60;;;10.90;99.90;;;;;;5029219;28;20048;-72
2023/05/28 03:54:13;;;;;;;18.05;7.63;;;10.90;99.90;;;;;;5032582;28;20482;-74
2023/05/28 03:56:39;;;;;;;18.17;7.47;;;10.90;99.90;;;;;;5048948;28;20398;-74
2023/05/28 03:59:04;;;;;;;19.10;7.22;;;10.80;99.90;;;;;;5014519;28;20041;-74
2023/05/28 04:01:34;;;;;;;16.98;7.72;;;10.80;99.90;;;;;;5039347;28;20053;-74
2023/05/28 04:03:59;;;;;;;16.80;7.05;;;10.80;99.90;;;;;;5059679;28;20052;-74
2023/05/28 04:06:25;;;;;;;20.23;7.40;;;10.80;99.90;;;;;;5044637;28;20061;-72
2023/05/28 04:08:52;;;;;;;15.80;7.22;;;10.80;99.90;;;;;;5057327;28;20473;-74
2023/05/28 04:11:18;;;;;;;21.95;7.53;;;10.80;99.90;;;;;;5024297;28;20033;-74
2023/05/28 04:13:44;;;;;;;18.15;7.93;;;10.80;99.90;;;;;;5056126;28;20081;-73
2023/05/28 04:16:10;;;;;;;17.63;6.68;;;10.80;99.90;;;;;;5045877;28;20049;-74
2023/05/28 04:18:35;;;;;;;18.63;7.50;;;10.80;99.90;;;;;;5049356;28;20045;-74
2023/05/28 04:21:01;;;;;;;21.17;7.50;;;10.80;99.90;;;;;;5041728;28;20067;-74
2023/05/28 04:23:27;;;;;;;19.08;7.13;;;10.80;99.90;;;;;;5059015;28;20040;-73
2023/05/28 04:25:54;;;;;;;16.95;7.35;;;10.90;99.90;;;;;;5051372;28;20049;-73
2023/05/28 04:28:20;;;;;;;17.50;6.82;;;10.90;99.90;;;;;;5028848;28;20047;-74
2023/05/28 04:30:45;;;;;;;16.35;7.03;;;10.90;99.90;;;;;;5043838;28;20037;-73
2023/05/28 04:33:11;;;;;;;16.88;7.15;;;10.90;99.90;;;;;;5041967;28;20041;-74
2023/05/28 04:35:37;;;;;;;18.90;7.25;;;10.90;99.90;;;;;;5027992;28;20147;-74
2023/05/28 04:38:04;;;;;;;19.50;7.03;;;10.90;99.90;;;;;;5052710;28;20044;-72
2023/05/28 04:40:29;;;;;;;16.35;7.03;;;11.00;99.90;;;;;;5047994;28;20041;-74
2023/05/28 04:42:55;;;;;;;19.42;7.40;;;11.00;99.90;;;;;;5041313;28;20059;-72
2023/05/28 04:45:21;;;;;;;18.10;7.57;;;11.00;99.90;;;;;;5048226;28;20033;-74
2023/05/28 04:47:49;;;;;;;19.38;7.57;;;11.00;99.90;;;;;;5045912;28;20044;-74
2023/05/28 04:50:15;;;;;;;16.70;7.10;;;11.10;99.90;;;;;;5060205;28;20548;-72
2023/05/28 04:52:41;;;;;;;20.65;7.75;;;11.10;99.90;;;;;;5058480;28;20037;-75
2023/05/28 04:55:07;;;;;;;15.10;7.35;;;11.10;99.90;;;;;;5032000;28;20052;-73
2023/05/28 04:57:33;;;;;;;21.10;8.38;;;11.10;99.90;;;;;;5040261;28;20132;-74
2023/05/28 04:59:59;;;;;;;18.90;7.88;;;11.10;99.90;;;;;;5043929;28;20036;-72
2023/05/28 05:02:25;;;;;;;21.60;7.70;;;11.10;99.90;;;;;;5043118;28;20086;-72
2023/05/28 05:04:50;;;;;;;20.20;7.82;;;11.10;99.90;;;;;;5058503;28;20124;-74
2023/05/28 05:07:17;;;;;;;18.70;7.40;;;11.10;99.90;;;;;;5072327;28;20135;-73
2023/05/28 05:09:42;;;;;;;19.42;7.45;;;11.20;99.90;;;;;;5063557;28;20122;-73
2023/05/28 05:12:09;;;;;;;19.02;7.70;;;11.20;99.90;;;;;;5030949;28;20044;-74
2023/05/28 05:14:35;;;;;;;18.15;7.40;;;11.10;99.90;;;;;;5044269;28;20040;-74
2023/05/28 05:17:02;;;;;;;19.83;7.28;;;11.30;99.90;;;;;;5055302;28;20033;-73
2023/05/28 05:19:28;;;;;;;21.17;7.03;;;11.30;99.90;;;;;;5049369;28;20095;-73
2023/05/28 05:21:53;;;;;;;18.77;6.82;;;11.40;99.90;;;;;;5025114;28;20036;-74
2023/05/28 05:24:19;;;;;;;17.75;6.65;;;11.50;99.90;;;;;;5030572;28;20034;-74
2023/05/28 05:26:45;;;;;;;19.65;6.93;;;11.50;99.90;;;;;;5062513;28;20049;-73
2023/05/28 05:29:11;;;;;;;19.63;7.50;;;11.60;99.90;;;;;;5053125;28;20050;-73
2023/05/28 05:31:36;;;;;;;17.10;6.15;;;11.60;99.90;;;;;;5061114;28;20092;-75
2023/05/28 05:34:02;;;;;;;17.75;6.25;;;11.70;99.90;;;;;;5037756;28;20034;-74
2023/05/28 05:36:28;;;;;;;17.65;5.93;;;11.70;99.90;;;;;;5061040;28;20041;-75
2023/05/28 05:38:54;;;;;;;16.42;6.57;;;11.80;99.90;;;;;;5019988;28;20044;-75
2023/05/28 05:41:21;;;;;;;17.00;6.35;;;11.90;99.90;;;;;;5044896;28;20040;-74
2023/05/28 05:43:46;;;;;;;15.10;5.85;;;11.90;99.90;;;;;;5023476;28;20219;-75
2023/05/28 05:46:12;;;;;;;17.45;6.25;;;12.00;99.90;;;;;;5035339;28;20049;-74
2023/05/28 05:48:38;;;;;;;18.67;6.47;;;12.10;99.90;;;;;;5038226;28;20056;-74
2023/05/28 05:51:04;;;;;;;21.30;6.65;;;12.10;99.90;;;;;;5008128;28;20037;-74
2023/05/28 05:53:29;;;;;;;18.95;7.45;;;12.20;99.90;;;;;;5024958;28;20044;-74
2023/05/28 05:55:55;;;;;;;16.45;7.18;;;12.20;99.90;;;;;;5023930;28;20064;-74
2023/05/28 05:58:21;;;;;;;16.02;7.22;;;12.30;99.90;;;;;;5025137;28;20056;-74
2023/05/28 06:00:50;;;;;;;20.98;7.50;;;12.40;99.90;;;;;;5013984;28;20119;-74
2023/05/28 06:03:16;;;;;;;19.27;7.07;;;12.50;99.90;;;;;;5044654;28;20076;-73
2023/05/28 06:05:42;;;;;;;19.98;7.28;;;12.50;99.90;;;;;;5037207;28;20063;-74
2023/05/28 06:08:08;;;;;;;17.33;6.95;;;12.60;99.90;;;;;;5036638;28;20044;-74
2023/05/28 06:10:34;;;;;;;26.30;7.47;;;12.70;99.90;;;;;;5035559;28;20037;-74
2023/05/28 06:13:02;;;;;;;25.98;8.35;;;12.80;99.90;;;;;;5034588;28;20044;-73
2023/05/28 06:15:29;;;;;;;21.60;6.75;;;12.90;99.90;;;;;;5030300;28;20044;-75
2023/05/28 06:17:55;;;;;;;20.80;7.40;;;13.00;99.90;;;;;;5038451;28;20044;-74
2023/05/28 06:20:21;;;;;;;20.40;6.53;;;13.10;99.90;;;;;;5003867;28;20044;-74
2023/05/28 06:22:47;;;;;;;17.10;6.30;;;13.20;99.90;;;;;;5024653;28;20055;-73
2023/05/28 06:25:14;;;;;;;18.23;5.57;;;13.20;99.90;;;;;;5024156;28;20478;-74
2023/05/28 06:27:40;;;;;;;17.17;6.13;;;13.30;99.90;;;;;;5037336;28;20164;-73
2023/05/28 06:30:07;;;;;;;12.75;5.63;;;13.40;99.90;;;;;;5019971;28;20144;-75
2023/05/28 06:32:33;;;;;;;20.85;5.72;;;13.50;99.90;;;;;;5037442;28;20032;-73
2023/05/28 06:35:00;;;;;;;20.63;6.47;;;13.50;99.90;;;;;;5035830;28;20671;-73
2023/05/28 06:37:26;;;;;;;19.10;5.70;;;13.60;99.90;;;;;;5019880;28;20073;-74
2023/05/28 06:39:51;;;;;;;19.58;6.07;;;13.70;99.90;;;;;;5006385;28;20539;-75
2023/05/28 06:42:17;;;;;;;16.17;6.50;;;13.70;99.90;;;;;;5030779;28;20041;-75
2023/05/28 06:44:43;;;;;;;18.48;6.47;;;13.80;99.90;;;;;;5030399;28;20398;-75
2023/05/28 06:47:09;;;;;;;16.95;5.68;;;13.90;99.90;;;;;;5039988;28;20097;-75
2023/05/28 06:49:35;;;;;;;14.68;5.65;;;14.00;99.90;;;;;;5007965;28;20406;-75
2023/05/28 06:52:00;;;;;;;19.52;6.05;;;14.00;99.90;;;;;;5023369;28;20194;-76
2023/05/28 06:54:26;;;;;;;15.77;5.38;;;14.10;99.90;;;;;;5035023;28;20041;-75
2023/05/28 06:56:52;;;;;;;20.77;5.70;;;14.10;99.90;;;;;;5037573;28;20055;-75
2023/05/28 06:59:18;;;;;;;12.52;4.97;;;14.20;99.90;;;;;;5034185;28;20052;-74
2023/05/28 07:01:43;;;;;;;15.20;5.53;;;14.30;99.90;;;;;;5034823;28;20041;-75
2023/05/28 07:04:09;;;;;;;15.73;5.10;;;14.40;99.90;;;;;;5031532;28;20114;-75
2023/05/28 07:06:35;;;;;;;12.25;4.82;;;14.50;99.90;;;;;;5003251;28;20759;-75
2023/05/28 07:09:01;;;;;;;17.77;5.40;;;14.60;99.90;;;;;;5023483;28;20052;-74
2023/05/28 07:11:26;;;;;;;13.45;5.25;;;14.60;99.90;;;;;;5029500;28;20069;-75
2023/05/28 07:13:54;;;;;;;15.68;5.15;;;14.70;99.90;;;;;;5035835;28;20060;-75
2023/05/28 07:16:21;;;;;;;15.57;5.70;;;14.80;99.90;;;;;;4997901;28;20037;-75
2023/05/28 07:18:47;;;;;;;14.75;5.10;;;14.90;99.90;;;;;;5032702;28;20406;-74
2023/05/28 07:21:13;;;;;;;11.82;4.63;;;15.00;99.90;;;;;;5028412;28;20037;-75
2023/05/28 07:23:39;;;;;;;11.15;4.82;;;15.10;99.90;;;;;;5035326;28;20033;-75
2023/05/28 07:26:05;;;;;;;9.00;4.38;;;15.20;99.90;;;;;;5029436;28;20224;-75
2023/05/28 07:28:31;;;;;;;8.75;4.20;;;15.30;99.90;;;;;;5026904;28;20048;-75
2023/05/28 07:30:57;;;;;;;9.43;4.10;;;15.40;99.90;;;;;;5047734;28;20065;-75
2023/05/28 07:33:23;;;;;;;8.70;3.55;;;15.50;99.90;;;;;;5030054;28;20037;-75
2023/05/28 07:35:54;;;;;;;6.18;3.42;;;15.60;99.90;;;;;;5025432;28;20037;-77
2023/05/28 07:38:21;;;;;;;12.27;3.70;;;15.60;99.90;;;;;;5035964;28;20033;-78
2023/05/28 07:40:47;;;;;;;10.95;3.60;;;15.70;99.90;;;;;;5036025;28;20489;-78
2023/05/28 07:43:13;;;;;;;7.25;3.50;;;15.70;99.90;;;;;;5035581;28;20043;-75
2023/05/28 07:45:39;;;;;;;10.45;4.05;;;15.80;99.90;;;;;;5026885;28;20123;-76
2023/05/28 07:48:05;;;;;;;6.50;3.33;;;15.80;99.90;;;;;;5004506;28;20269;-78
2023/05/28 07:50:38;;;;;;;9.88;3.40;;;15.90;99.20;;;;;;5010850;28;20175;-77
2023/05/28 07:53:04;;;;;;;8.15;3.67;;;15.90;98.90;;;;;;5019887;28;20049;-74
2023/05/28 07:55:31;;;;;;;9.68;3.50;;;16.00;98.80;;;;;;5023293;28;20033;-74
2023/05/28 07:57:58;;;;;;;7.47;3.28;;;16.10;98.40;;;;;;5023509;28;20090;-73
2023/05/28 08:00:25;;;;;;;9.13;3.65;;;16.20;98.20;;;;;;5002382;28;20045;-73
2023/05/28 08:02:52;;;;;;;7.68;3.83;;;16.30;98.10;;;;;;5023504;28;20049;-64
2023/05/28 08:05:18;;;;;;;10.05;4.13;;;16.40;98.30;;;;;;5040556;28;20136;-74
2023/05/28 08:07:44;;;;;;;9.63;4.75;;;16.50;98.10;;;;;;5038343;28;20809;-74
2023/05/28 08:10:10;;;;;;;8.48;3.95;;;16.60;97.70;;;;;;5042705;28;20045;-75
2023/05/28 08:12:36;;;;;;;8.10;4.03;;;16.70;96.70;;;;;;5039606;28;20037;-75
2023/05/28 08:15:03;;;;;;;11.82;4.68;;;16.70;96.50;;;;;;5029330;28;20032;-73
2023/05/28 08:17:32;;;;;;;11.18;4.82;;;16.80;96.40;;;;;;5046874;28;20041;-74
2023/05/28 08:19:58;;;;;;;11.20;4.82;;;16.90;95.40;;;;;;4996963;28;20378;-74
2023/05/28 08:22:23;;;;;;;11.68;4.88;;;16.90;95.50;;;;;;5044097;28;20130;-75
2023/05/28 08:24:49;;;;;;;9.23;4.38;;;17.00;95.10;;;;;;5013412;28;20045;-74
2023/05/28 08:27:15;;;;;;;12.57;4.60;;;17.10;94.30;;;;;;5028334;28;20048;-72
2023/05/28 08:29:41;;;;;;;10.10;4.65;;;17.20;93.30;;;;;;5037661;28;20034;-75
2023/05/28 08:32:07;;;;;;;11.18;5.10;;;17.20;92.80;;;;;;5045912;28;20041;-73
2023/05/28 08:34:35;;;;;;;9.95;4.60;;;17.30;92.50;;;;;;5021447;28;20037;-73
2023/05/28 08:37:03;;;;;;;9.52;4.63;;;17.30;92.90;;;;;;5027222;28;20516;-73
2023/05/28 08:39:30;;;;;;;10.32;4.93;;;17.40;93.10;;;;;;5046415;28;20083;-74
2023/05/28 08:41:55;;;;;;;10.02;5.00;;;17.50;93.50;;;;;;5041564;28;20044;-73
2023/05/28 08:44:21;;;;;;;10.32;5.00;;;17.60;93.30;;;;;;5027826;28;20052;-74
2023/05/28 08:46:48;;;;;;;14.60;5.35;;;17.60;93.00;;;;;;5012365;28;20041;-73
2023/05/28 08:49:20;;;;;;;12.35;5.00;;;17.70;93.00;;;;;;5036526;28;20045;-74
2023/05/28 08:51:51;;;;;;;12.25;5.22;;;17.80;93.00;;;;;;5039864;28;20036;-73
2023/05/28 08:54:17;;;;;;;11.90;5.13;;;17.90;92.50;;;;;;5034135;28;20239;-75
2023/05/28 08:56:43;;;;;;;11.13;5.40;;;17.90;92.20;;;;;;5039231;28;20033;-74
2023/05/28 08:59:12;;;;;;;10.43;5.35;;;17.90;92.20;;;;;;5036976;28;20091;-74
2023/05/28 09:01:39;;;;;;;16.77;5.82;;;18.00;91.60;;;;;;5008943;28;20119;-73
2023/05/28 09:04:04;;;;;;;12.40;5.30;;;18.10;91.40;;;;;;5021589;28;20132;-73
2023/05/28 09:06:31;;;;;;;11.00;5.57;;;18.20;91.70;;;;;;5025629;28;20134;-73
2023/05/28 09:08:57;;;;;;;14.00;5.40;;;18.30;91.40;;;;;;5015279;28;20102;-73
2023/05/28 09:11:24;;;;;;;12.82;5.25;;;18.30;90.60;;;;;;5017504;28;20033;-73
2023/05/28 09:13:49;;;;;;;8.68;5.13;;;18.40;90.50;;;;;;5024651;28;20139;-72
2023/05/28 09:16:21;;;;;;;9.77;5.55;;;18.50;89.70;;;;;;4999817;28;20064;-76
2023/05/28 09:18:51;;;;;;;9.70;6.00;;;18.60;90.50;;;;;;5009838;28;20049;-74
2023/05/28 09:21:20;;;;;;;11.85;5.75;;;18.80;90.00;;;;;;5023254;28;20051;-75
2023/05/28 09:23:51;;;;;;;10.00;5.88;;;18.90;88.20;;;;;;5010346;28;20072;-73
2023/05/28 09:26:19;;;;;;;15.07;5.95;;;19.00;87.90;;;;;;5004324;28;20045;-74
2023/05/28 09:28:46;;;;;;;11.77;5.82;;;19.10;87.30;;;;;;5020976;28;20037;-73
2023/05/28 09:31:12;;;;;;;13.07;6.10;;;19.20;86.50;;;;;;5009350;28;20065;-72
2023/05/28 09:33:42;;;;;;;11.05;5.95;;;19.20;83.80;;;;;;4997058;28;20504;-73
2023/05/28 09:36:10;;;;;;;15.00;6.70;;;19.30;83.30;;;;;;5029081;28;20726;-73
2023/05/28 09:38:40;;;;;;;10.00;5.75;;;19.40;80.80;;;;;;5015022;28;20392;-72
2023/05/28 09:41:23;;;;;;;10.10;5.75;;;19.50;80.80;;;;;;5002653;28;20053;-71
2023/05/28 09:43:57;;;;;;;10.02;5.78;;;19.50;79.60;;;;;;5035033;28;20041;-72
2023/05/28 09:46:34;;;;;;;10.95;5.90;;;19.60;80.00;;;;;;5002413;28;20033;-72
2023/05/28 09:49:01;;;;;;;10.48;6.05;;;19.70;79.00;;;;;;5017986;28;20053;-73
2023/05/28 09:51:29;;;;;;;11.50;6.18;;;19.80;78.20;;;;;;5013623;28;20339;-73
2023/05/28 09:54:04;;;;;;;9.13;6.10;;;19.90;76.80;;;;;;5031228;28;20045;-74
2023/05/28 09:56:32;;;;;;;9.10;6.40;;;20.00;74.30;;;;;;5034456;28;20499;-72
2023/05/28 09:59:01;;;;;;;9.23;5.70;;;20.00;73.60;;;;;;5030709;28;20061;-73
2023/05/28 10:01:40;;;;;;;12.02;6.18;;;20.10;72.10;;;;;;5015353;28;20044;-72
2023/05/28 10:04:08;;;;;;;10.10;5.70;;;20.20;71.50;;;;;;5030841;28;20705;-73
2023/05/28 10:06:37;;;;;;;7.20;5.20;;;20.20;71.10;;;;;;4999618;28;20505;-73
2023/05/28 10:09:04;;;;;;;8.77;5.28;;;20.30;71.80;;;;;;5030441;28;20114;-75
2023/05/28 10:11:37;;;;;;;10.27;5.78;;;20.50;71.70;;;;;;4995275;28;20472;-74
2023/05/28 10:14:04;;;;;;;10.00;5.70;;;20.60;71.20;;;;;;5017842;28;20122;-75
2023/05/28 10:16:42;;;;;;;9.60;5.43;;;20.70;70.90;;;;;;5029455;28;20481;-74
2023/05/28 10:19:09;;;;;;;9.30;5.25;;;20.80;66.90;;;;;;4997122;28;20037;-74
2023/05/28 10:21:36;;;;;;;9.48;4.60;;;20.80;63.70;;;;;;5026084;28;20084;-76
2023/05/28 10:24:05;;;;;;;5.72;3.80;;;20.90;63.20;;;;;;5013832;28;20041;-74
2023/05/28 10:26:31;;;;;;;6.55;4.00;;;21.00;62.50;;;;;;5009482;28;20057;-76
2023/05/28 10:29:00;;;;;;;5.88;3.30;;;21.00;61.00;;;;;;5029234;28;20044;-74
2023/05/28 10:31:26;;;;;;;7.40;2.92;;;21.10;61.90;;;;;;5026674;28;20574;-74
2023/05/28 10:33:53;;;;;;;7.97;2.85;;;21.10;60.50;;;;;;5006259;28;20175;-74
2023/05/28 10:36:23;;;;;;;6.80;3.17;;;21.20;61.50;;;;;;5033881;28;20042;-74
2023/05/28 10:38:52;;;;;;;7.88;3.53;;;21.30;62.10;;;;;;5027451;28;20093;-62
2023/05/28 10:41:19;;;;;;;10.50;3.40;;;21.30;62.80;;;;;;5025289;28;24059;-64
2023/05/28 10:43:46;;;;;;;7.57;3.60;;;21.40;63.50;;;;;;5028172;28;20052;-63
2023/05/28 10:46:16;;;;;;;8.73;3.10;;;21.40;64.30;;;;;;5031177;28;20147;-63
2023/05/28 10:49:03;;;;;;;7.78;2.95;;;21.50;63.70;;;;;;5021844;28;20194;-63
2023/05/28 10:51:57;;;;;;;6.28;3.20;;;21.60;64.20;;;;;;5022977;28;20046;-64
2023/05/28 10:54:38;;;;;;;7.07;3.15;;;21.60;65.40;;;;;;5023967;28;20041;-63
2023/05/28 10:57:16;;;;;;;7.57;3.07;;;21.70;65.00;;;;;;5026761;28;20040;-63
2023/05/28 10:59:52;;;;;;;10.32;3.38;;;21.60;66.10;;;;;;5008677;28;20076;-63
2023/05/28 11:02:21;;;;;;;8.98;3.58;;;21.70;67.40;;;;;;5027367;28;20041;-63
2023/05/28 11:04:50;;;;;;;9.20;3.40;;;21.80;67.50;;;;;;5033628;28;20056;-62
2023/05/28 11:07:17;;;;;;;6.95;3.33;;;21.90;67.50;;;;;;5033413;28;20959;-62
2023/05/28 11:09:51;;;;;;;10.18;3.97;;;21.90;67.70;;;;;;5032051;28;20508;-62
2023/05/28 11:12:19;;;;;;;7.70;3.20;;;21.90;68.00;;;;;;5035079;28;20045;-63
2023/05/28 11:14:45;;;;;;;7.70;3.35;;;21.90;68.00;;;;;;5033181;28;20612;-61
2023/05/28 11:17:11;;;;;;;13.45;3.60;;;22.00;67.00;;;;;;5031802;28;22060;-61
2023/05/28 11:19:51;;;;;;;6.38;3.17;;;22.00;68.20;;;;;;5036593;28;20176;-62
2023/05/28 11:22:18;;;;;;;9.95;3.58;;;22.00;68.90;;;;;;5035511;28;20072;-62
2023/05/28 11:24:59;;;;;;;8.40;3.70;;;22.10;69.50;;;;;;5032723;28;20126;-63
2023/05/28 11:27:27;;;;;;;7.50;3.72;;;22.30;70.50;;;;;;5031021;28;20797;-62
2023/05/28 11:29:56;;;;;;;8.55;3.53;;;22.40;70.00;;;;;;5026971;28;20045;-64
2023/05/28 11:32:23;;;;;;;7.03;3.88;;;22.40;69.10;;;;;;5026237;28;20048;-63
2023/05/28 11:34:49;;;;;;;11.52;3.90;;;22.50;69.70;;;;;;5039661;28;20068;-63
2023/05/28 11:37:15;;;;;;;12.43;4.13;;;22.60;69.00;;;;;;5031761;28;20068;-63
2023/05/28 11:39:49;;;;;;;11.48;3.85;;;22.60;67.40;;;;;;5024684;28;20408;-63
2023/05/28 11:42:16;;;;;;;9.00;3.92;;;22.60;68.50;;;;;;5006514;28;20056;-63
2023/05/28 11:44:45;;;;;;;7.60;3.70;;;22.60;68.50;;;;;;5031095;28;20037;-62
2023/05/28 11:47:12;;;;;;;11.32;3.90;;;22.60;68.80;;;;;;5032792;28;20041;-62
2023/05/28 11:49:38;;;;;;;11.15;3.92;;;22.60;69.10;;;;;;5040207;28;20037;-63
2023/05/28 11:52:04;;;;;;;13.25;4.00;;;22.60;69.00;;;;;;5040800;28;20044;-62
2023/05/28 11:54:29;;;;;;;9.63;4.10;;;22.60;69.30;;;;;;5040222;28;20068;-62
2023/05/28 11:56:55;;;;;;;11.02;4.15;;;22.60;69.40;;;;;;5028842;28;20095;-62
2023/05/28 11:59:21;;;;;;;14.63;3.80;;;22.60;67.80;;;;;;5036080;28;20045;-62
2023/05/28 12:01:47;;;;;;;11.55;3.83;;;22.50;68.80;;;;;;5031878;28;20042;-62
2023/05/28 12:04:13;;;;;;;9.55;4.00;;;22.50;69.60;;;;;;5038758;28;22465;-63
2023/05/28 12:07:00;;;;;;;15.38;4.18;;;22.50;70.10;;;;;;5032036;28;20063;-62
2023/05/28 12:09:25;;;;;;;10.52;3.95;;;22.60;69.40;;;;;;5034827;28;20041;-62
2023/05/28 12:12:04;;;;;;;10.82;4.07;;;22.50;70.60;;;;;;5032387;28;20386;-64
2023/05/28 12:14:31;;;;;;;11.32;4.10;;;22.40;70.80;;;;;;5035577;28;20160;-64
2023/05/28 12:17:10;;;;;;;10.80;3.67;;;22.50;71.30;;;;;;5036301;28;20448;-62
2023/05/28 12:19:36;;;;;;;12.57;4.13;;;22.50;72.20;;;;;;5044148;28;20041;-62
2023/05/28 12:22:12;;;;;;;11.50;4.07;;;22.60;71.80;;;;;;5039959;28;20041;-62
2023/05/28 12:24:38;;;;;;;12.73;4.93;;;22.60;71.60;;;;;;5021568;28;20048;-63
2023/05/28 12:27:04;;;;;;;10.48;4.88;;;22.70;71.80;;;;;;5020798;28;20485;-63
2023/05/28 12:29:29;;;;;;;15.02;5.13;;;22.60;71.20;;;;;;5002356;28;20073;-63
2023/05/28 12:31:59;;;;;;;15.15;4.90;;;22.60;71.70;;;;;;5033913;28;20146;-62
2023/05/28 12:34:25;;;;;;;12.38;4.82;;;22.50;71.00;;;;;;5016434;28;21322;-62
2023/05/28 12:36:51;;;;;;;10.55;4.13;;;22.50;71.40;;;;;;5030441;28;20069;-62
2023/05/28 12:39:16;;;;;;;10.63;4.10;;;22.50;71.20;;;;;;5043356;28;20049;-62